Time;durP1;ratioP1;P1;durP2;ratioP2;P2;SDS_P1;SDS_P2;PMS_P1;PMS_P2;Temp;Humidity;BMP_temperature;BMP_pressure;BME280_temperature;BME280_humidity;BME280_pressure;Samples;Min_cycle;Max_cycle;Signal;HPM_P1;HPM_P2
2021/10/04 00:01:26;;;;;;;;;;;;;;;;;;4967080;28;19914;-85
2021/10/04 00:03:51;;;;;;;;;;;;;;;;;;4951084;28;19930;-84
2021/10/04 00:06:16;;;;;;;;;;;;;;;;;;4949937;28;19930;-84
2021/10/04 00:08:41;;;;;;;;;;;;;;;;;;4951615;28;19914;-84
2021/10/04 00:11:07;;;;;;;;;;;;;;;;;;4950938;28;20009;-83
2021/10/04 00:13:32;;;;;;;;;;;;;;;;;;4955287;28;19917;-83
2021/10/04 00:15:58;;;;;;;;;;;;;;;;;;4968269;28;19960;-85
2021/10/04 00:18:24;;;;;;;;;;;;;;;;;;4949979;28;19918;-85
2021/10/04 00:20:49;;;;;;;;;;;;;;;;;;4950648;28;19913;-85
2021/10/04 00:23:15;;;;;;;;;;;;;;;;;;4967115;28;19922;-85
2021/10/04 00:25:40;;;;;;;;;;;;;;;;;;4947237;28;20288;-85
2021/10/04 00:28:05;;;;;;;;;;;;;;;;;;4958364;28;19925;-85
2021/10/04 00:30:31;;;;;;;;;;;;;;;;;;4942138;28;19918;-85
2021/10/04 00:32:56;;;;;;;;;;;;;;;;;;4942577;28;19921;-84
2021/10/04 00:35:22;;;;;;;;;;;;;;;;;;4959334;28;19914;-85
2021/10/04 00:37:48;;;;;;;;;;;;;;;;;;4969915;28;19914;-86
2021/10/04 00:40:14;;;;;;;;;;;;;;;;;;4974224;28;19969;-85
2021/10/04 00:42:39;;;;;;;;;;;;;;;;;;4990747;28;19921;-86
2021/10/04 00:45:05;;;;;;;;;;;;;;;;;;4974425;28;19918;-86
2021/10/04 00:47:31;;;;;;;;;;;;;;;;;;4958171;28;19914;-85
2021/10/04 00:49:57;;;;;;;;;;;;;;;;;;4974360;28;20288;-85
2021/10/04 00:52:22;;;;;;;;;;;;;;;;;;4973871;28;19914;-85
2021/10/04 00:54:47;;;;;;;;;;;;;;;;;;4973911;28;19949;-86
2021/10/04 00:57:13;;;;;;;;;;;;;;;;;;4988034;28;19917;-85
2021/10/04 00:59:38;;;;;;;;;;;;;;;;;;4976810;28;19917;-85
2021/10/04 01:02:03;;;;;;;;;;;;;;;;;;4960807;28;19922;-85
2021/10/04 01:04:29;;;;;;;;;;;;;;;;;;4976894;28;19956;-85
2021/10/04 01:06:54;;;;;;;;;;;;;;;;;;4976791;28;19914;-85
2021/10/04 01:09:20;;;;;;;;;;;;;;;;;;4960916;28;19913;-84
2021/10/04 01:11:45;;;;;;;;;;;;;;;;;;4976427;28;19924;-85
2021/10/04 01:14:10;;;;;;;;;;;;;;;;;;4976710;28;19914;-85
2021/10/04 01:16:36;;;;;;;;;;;;;;;;;;4960839;28;20438;-85
2021/10/04 01:19:01;;;;;;;;;;;;;;;;;;4960731;28;20479;-85
2021/10/04 01:21:26;;;;;;;;;;;;;;;;;;4960177;28;19921;-85
2021/10/04 01:23:53;;;;;;;;;;;;;;;;;;4960485;28;19918;-85
2021/10/04 01:26:18;;;;;;;;;;;;;;;;;;4960696;28;19917;-85
2021/10/04 01:28:44;;;;;;;;;;;;;;;;;;4976440;28;19996;-85
2021/10/04 01:31:09;;;;;;;;;;;;;;;;;;4952344;28;19922;-85
2021/10/04 01:33:34;;;;;;;;;;;;;;;;;;4973341;28;19976;-84
2021/10/04 01:35:59;;;;;;;;;;;;;;;;;;4978590;28;19914;-85
2021/10/04 01:38:25;;;;;;;;;;;;;;;;;;4972926;28;20299;-85
2021/10/04 01:40:51;;;;;;;;;;;;;;;;;;4973415;28;19914;-85
2021/10/04 01:43:16;;;;;;;;;;;;;;;;;;4972882;28;19914;-84
2021/10/04 01:45:42;;;;;;;;;;;;;;;;;;4972806;28;19914;-84
2021/10/04 01:48:07;;;;;;;;;;;;;;;;;;4972792;28;19930;-84
2021/10/04 01:50:33;;;;;;;;;;;;;;;;;;4972599;28;19918;-85
2021/10/04 01:52:58;;;;;;;;;;;;;;;;;;4972787;28;19972;-85
2021/10/04 01:55:23;;;;;;;;;;;;;;;;;;4973051;28;20296;-85
2021/10/04 01:57:49;;;;;;;;;;;;;;;;;;4991740;28;19921;-84
2021/10/04 02:00:15;;;;;;;;;;;;;;;;;;4959937;28;19921;-84
2021/10/04 02:02:41;;;;;;;;;;;;;;;;;;4959958;28;19984;-84
2021/10/04 02:05:07;;;;;;;;;;;;;;;;;;4975599;28;20284;-84
2021/10/04 02:07:32;;;;;;;;;;;;;;;;;;4975878;28;19918;-85
2021/10/04 02:09:58;;;;;;;;;;;;;;;;;;4962367;28;19935;-84
2021/10/04 02:12:23;;;;;;;;;;;;;;;;;;4978919;28;20052;-85
2021/10/04 02:14:48;;;;;;;;;;;;;;;;;;4979219;28;19922;-84
2021/10/04 02:17:13;;;;;;;;;;;;;;;;;;4978995;28;19977;-83
2021/10/04 02:19:39;;;;;;;;;;;;;;;;;;4978676;28;19920;-84
2021/10/04 02:22:04;;;;;;;;;;;;;;;;;;4995214;28;19923;-84
2021/10/04 02:24:31;;;;;;;;;;;;;;;;;;4965511;28;20013;-84
2021/10/04 02:26:56;;;;;;;;;;;;;;;;;;4956416;28;19914;-84
2021/10/04 02:29:22;;;;;;;;;;;;;;;;;;4956311;28;19914;-84
2021/10/04 02:31:47;;;;;;;;;;;;;;;;;;4972559;28;19965;-84
2021/10/04 02:34:12;;;;;;;;;;;;;;;;;;4956038;28;20377;-84
2021/10/04 02:36:38;;;;;;;;;;;;;;;;;;5002787;28;19918;-84
2021/10/04 02:39:03;;;;;;;;;;;;;;;;;;4975194;28;20012;-84
2021/10/04 02:41:28;;;;;;;;;;;;;;;;;;4959267;28;19917;-85
2021/10/04 02:43:54;;;;;;;;;;;;;;;;;;4959439;28;19913;-84
2021/10/04 02:46:19;;;;;;;;;;;;;;;;;;4959329;28;19959;-84
2021/10/04 02:48:44;;;;;;;;;;;;;;;;;;4991358;28;19914;-84
2021/10/04 02:51:10;;;;;;;;;;;;;;;;;;4975341;28;19921;-84
2021/10/04 02:53:35;;;;;;;;;;;;;;;;;;4975295;28;19925;-84
2021/10/04 02:56:00;;;;;;;;;;;;;;;;;;4975100;28;20016;-84
2021/10/04 02:58:27;;;;;;;;;;;;;;;;;;4959947;28;20045;-84
2021/10/04 03:00:52;;;;;;;;;;;;;;;;;;4963133;28;19949;-84
2021/10/04 03:03:17;;;;;;;;;;;;;;;;;;4962871;28;20027;-84
2021/10/04 03:05:43;;;;;;;;;;;;;;;;;;4963159;28;19918;-84
2021/10/04 03:08:09;;;;;;;;;;;;;;;;;;4963161;28;19917;-85
2021/10/04 03:10:34;;;;;;;;;;;;;;;;;;4970687;28;19921;-85
2021/10/04 03:13:00;;;;;;;;;;;;;;;;;;4982163;28;19921;-85
2021/10/04 03:15:25;;;;;;;;;;;;;;;;;;4982431;28;19917;-84
2021/10/04 03:17:51;;;;;;;;;;;;;;;;;;4976344;28;19930;-85
2021/10/04 03:20:16;;;;;;;;;;;;;;;;;;4992288;28;19914;-84
2021/10/04 03:22:41;;;;;;;;;;;;;;;;;;4995320;28;19913;-84
2021/10/04 03:25:07;;;;;;;;;;;;;;;;;;4995116;28;20029;-84
2021/10/04 03:27:32;;;;;;;;;;;;;;;;;;4994736;28;19965;-84
2021/10/04 03:29:58;;;;;;;;;;;;;;;;;;4995133;28;19914;-84
2021/10/04 03:32:23;;;;;;;;;;;;;;;;;;4978512;28;19922;-85
2021/10/04 03:34:48;;;;;;;;;;;;;;;;;;4994861;28;19965;-84
2021/10/04 03:37:15;;;;;;;;;;;;;;;;;;4994883;28;19918;-84
2021/10/04 03:39:40;;;;;;;;;;;;;;;;;;4962365;28;20024;-84
2021/10/04 03:42:07;;;;;;;;;;;;;;;;;;4994445;28;20320;-84
2021/10/04 03:44:33;;;;;;;;;;;;;;;;;;4962419;28;19997;-84
2021/10/04 03:46:58;;;;;;;;;;;;;;;;;;4978101;28;19925;-84
2021/10/04 03:49:24;;;;;;;;;;;;;;;;;;4978428;28;19918;-84
2021/10/04 03:51:49;;;;;;;;;;;;;;;;;;4978107;28;19921;-84
2021/10/04 03:54:14;;;;;;;;;;;;;;;;;;4978369;28;19921;-84
2021/10/04 03:56:40;;;;;;;;;;;;;;;;;;4962322;28;19914;-84
2021/10/04 03:59:05;;;;;;;;;;;;;;;;;;4978065;28;20398;-84
2021/10/04 04:01:30;;;;;;;;;;;;;;;;;;4961911;28;19955;-83
2021/10/04 04:03:56;;;;;;;;;;;;;;;;;;4978116;28;19922;-84
2021/10/04 04:06:21;;;;;;;;;;;;;;;;;;4961705;28;19914;-84
2021/10/04 04:08:47;;;;;;;;;;;;;;;;;;4961738;28;19914;-84
2021/10/04 04:11:13;;;;;;;;;;;;;;;;;;4974082;28;19917;-84
2021/10/04 04:13:38;;;;;;;;;;;;;;;;;;4961026;28;19988;-85
2021/10/04 04:16:04;;;;;;;;;;;;;;;;;;4991086;28;19926;-83
2021/10/04 04:18:30;;;;;;;;;;;;;;;;;;4990918;28;19918;-84
2021/10/04 04:20:56;;;;;;;;;;;;;;;;;;4990501;28;19918;-84
2021/10/04 04:23:21;;;;;;;;;;;;;;;;;;4990723;28;19918;-84
2021/10/04 04:25:47;;;;;;;;;;;;;;;;;;4990859;28;19918;-84
2021/10/04 04:28:13;;;;;;;;;;;;;;;;;;4990171;28;19953;-84
2021/10/04 04:30:38;;;;;;;;;;;;;;;;;;4990760;28;19972;-84
2021/10/04 04:33:03;;;;;;;;;;;;;;;;;;4990380;28;19934;-84
2021/10/04 04:35:29;;;;;;;;;;;;;;;;;;4993654;28;19917;-84
2021/10/04 04:37:54;;;;;;;;;;;;;;;;;;4994066;28;19914;-84
2021/10/04 04:40:20;;;;;;;;;;;;;;;;;;4977937;28;19921;-84
2021/10/04 04:42:46;;;;;;;;;;;;;;;;;;4960941;28;20028;-84
2021/10/04 04:45:12;;;;;;;;;;;;;;;;;;4961436;28;20012;-84
2021/10/04 04:47:37;;;;;;;;;;;;;;;;;;4977855;28;19957;-84
2021/10/04 04:50:04;;;;;;;;;;;;;;;;;;4961038;28;19979;-84
2021/10/04 04:52:29;;;;;;;;;;;;;;;;;;4961179;28;19917;-84
2021/10/04 04:54:54;;;;;;;;;;;;;;;;;;4960892;28;19963;-84
2021/10/04 04:57:19;;;;;;;;;;;;;;;;;;4960918;28;19914;-85
2021/10/04 04:59:45;;;;;;;;;;;;;;;;;;4977273;28;20037;-84
2021/10/04 05:02:10;;;;;;;;;;;;;;;;;;4977296;28;20016;-84
2021/10/04 05:04:36;;;;;;;;;;;;;;;;;;4960651;28;19926;-84
2021/10/04 05:07:01;;;;;;;;;;;;;;;;;;4953330;28;20032;-84
2021/10/04 05:09:27;;;;;;;;;;;;;;;;;;4973751;28;19914;-84
2021/10/04 05:11:54;;;;;;;;;;;;;;;;;;4982215;28;19980;-86
2021/10/04 05:14:19;;;;;;;;;;;;;;;;;;4960869;28;20023;-83
2021/10/04 05:16:46;;;;;;;;;;;;;;;;;;4961350;28;19968;-87
2021/10/04 05:19:12;;;;;;;;;;;;;;;;;;4961862;28;19914;-90
2021/10/04 05:21:37;;;;;;;;;;;;;;;;;;4961416;28;19921;-91
2021/10/04 05:24:03;;;;;;;;;;;;;;;;;;4961348;28;19924;-89
2021/10/04 05:26:28;;;;;;;;;;;;;;;;;;4961192;28;19920;-92
2021/10/04 05:28:53;;;;;;;;;;;;;;;;;;4959650;28;19924;-91
2021/10/04 05:31:19;;;;;;;;;;;;;;;;;;4961615;28;19918;-90
2021/10/04 05:33:44;;;;;;;;;;;;;;;;;;4961709;28;19928;-91
2021/10/04 05:36:09;;;;;;;;;;;;;;;;;;4962003;28;19914;-92
2021/10/04 05:38:36;;;;;;;;;;;;;;;;;;4961332;28;19918;-91
2021/10/04 05:41:03;;;;;;;;;;;;;;;;;;4993727;28;19914;-90
2021/10/04 05:43:32;;;;;;;;;;;;;;;;;;4961862;28;19913;-90
2021/10/04 05:45:57;;;;;;;;;;;;;;;;;;4961839;28;19917;-89
2021/10/04 05:48:25;;;;;;;;;;;;;;;;;;4960564;28;19918;-89
2021/10/04 05:50:52;;;;;;;;;;;;;;;;;;4961071;28;19914;-91
2021/10/04 05:53:18;;;;;;;;;;;;;;;;;;4961188;28;20022;-90
2021/10/04 05:55:47;;;;;;;;;;;;;;;;;;4961088;28;19918;-91
2021/10/04 05:58:13;;;;;;;;;;;;;;;;;;4960971;28;19960;-89
2021/10/04 06:00:41;;;;;;;;;;;;;;;;;;4960560;28;19941;-89
2021/10/04 06:03:06;;;;;;;;;;;;;;;;;;4974763;28;19949;-85
2021/10/04 06:05:32;;;;;;;;;;;;;;;;;;4975326;28;19918;-85
2021/10/04 06:07:57;;;;;;;;;;;;;;;;;;4958989;28;19961;-85
2021/10/04 06:10:23;;;;;;;;;;;;;;;;;;4976580;28;19925;-84
2021/10/04 06:12:48;;;;;;;;;;;;;;;;;;4959055;28;19926;-85
2021/10/04 06:15:14;;;;;;;;;;;;;;;;;;4975572;28;20336;-85
2021/10/04 06:17:39;;;;;;;;;;;;;;;;;;4959882;28;19940;-85
2021/10/04 06:20:05;;;;;;;;;;;;;;;;;;4975829;28;20288;-85
2021/10/04 06:22:31;;;;;;;;;;;;;;;;;;4975117;28;19921;-85
2021/10/04 06:24:56;;;;;;;;;;;;;;;;;;4959183;28;19918;-85
2021/10/04 06:27:22;;;;;;;;;;;;;;;;;;4975605;28;19921;-86
2021/10/04 06:29:47;;;;;;;;;;;;;;;;;;4959670;28;19914;-86
2021/10/04 06:32:13;;;;;;;;;;;;;;;;;;4955078;28;19968;-86
2021/10/04 06:34:38;;;;;;;;;;;;;;;;;;4991570;28;19926;-86
2021/10/04 06:37:04;;;;;;;;;;;;;;;;;;4992009;28;19973;-85
2021/10/04 06:39:30;;;;;;;;;;;;;;;;;;4991856;28;19918;-84
2021/10/04 06:41:56;;;;;;;;;;;;;;;;;;4990834;28;20000;-85
2021/10/04 06:44:22;;;;;;;;;;;;;;;;;;4959463;28;19921;-86
2021/10/04 06:46:47;;;;;;;;;;;;;;;;;;4975084;28;19996;-85
2021/10/04 06:49:13;;;;;;;;;;;;;;;;;;4975706;28;20369;-86
2021/10/04 06:51:39;;;;;;;;;;;;;;;;;;4959209;28;19917;-85
2021/10/04 06:54:04;;;;;;;;;;;;;;;;;;4975335;28;19918;-86
2021/10/04 06:56:31;;;;;;;;;;;;;;;;;;4975125;28;19924;-86
2021/10/04 06:58:56;;;;;;;;;;;;;;;;;;4958985;28;20470;-85
2021/10/04 07:01:22;;;;;;;;;;;;;;;;;;4958610;28;19917;-84
2021/10/04 07:03:47;;;;;;;;;;;;;;;;;;4975362;28;20013;-84
2021/10/04 07:06:14;;;;;;;;;;;;;;;;;;4976285;28;19930;-87
2021/10/04 07:08:42;;;;;;;;;;;;;;;;;;4960253;28;19918;-88
2021/10/04 07:11:07;;;;;;;;;;;;;;;;;;4959887;28;19925;-87
2021/10/04 07:13:35;;;;;;;;;;;;;;;;;;4960505;28;19914;-87
2021/10/04 07:16:01;;;;;;;;;;;;;;;;;;4960178;28;19921;-87
2021/10/04 07:18:26;;;;;;;;;;;;;;;;;;4975732;28;19918;-87
2021/10/04 07:20:55;;;;;;;;;;;;;;;;;;4960163;28;19914;-87
2021/10/04 07:23:20;;;;;;;;;;;;;;;;;;4959937;28;19971;-87
2021/10/04 07:25:46;;;;;;;;;;;;;;;;;;4959332;28;20004;-88
2021/10/04 07:28:17;;;;;;;;;;;;;;;;;;4988773;28;20042;-89
2021/10/04 07:30:44;;;;;;;;;;;;;;;;;;4982433;28;19914;-89
2021/10/04 07:33:10;;;;;;;;;;;;;;;;;;4959981;28;20530;-89
2021/10/04 07:35:36;;;;;;;;;;;;;;;;;;4960153;28;20004;-88
2021/10/04 07:38:04;;;;;;;;;;;;;;;;;;4959844;28;19914;-90
2021/10/04 07:43:52;;;;;;;;;;;;;;;;;;4993808;28;20363;-90
2021/10/04 07:46:17;;;;;;;;;;;;;;;;;;4962114;28;19965;-83
2021/10/04 07:48:43;;;;;;;;;;;;;;;;;;4962016;28;19945;-84
2021/10/04 07:51:11;;;;;;;;;;;;;;;;;;4974333;28;20028;-86
2021/10/04 07:53:39;;;;;;;;;;;;;;;;;;4991162;28;20447;-88
2021/10/04 07:56:05;;;;;;;;;;;;;;;;;;4975620;28;19949;-86
2021/10/04 07:58:31;;;;;;;;;;;;;;;;;;4975649;28;19921;-88
2021/10/04 08:00:57;;;;;;;;;;;;;;;;;;4991775;28;20008;-87
2021/10/04 08:03:22;;;;;;;;;;;;;;;;;;4975686;28;19925;-88
2021/10/04 08:05:50;;;;;;;;;;;;;;;;;;4974624;28;21003;-87
2021/10/04 08:08:16;;;;;;;;;;;;;;;;;;4975787;28;19925;-87
2021/10/04 08:10:42;;;;;;;;;;;;;;;;;;4957838;28;20016;-86
2021/10/04 08:13:11;;;;;;;;;;;;;;;;;;4975920;28;19925;-88
2021/10/04 08:15:40;;;;;;;;;;;;;;;;;;5008335;28;20276;-88
2021/10/04 08:18:06;;;;;;;;;;;;;;;;;;5008180;28;19925;-88
2021/10/04 08:20:31;;;;;;;;;;;;;;;;;;4977503;28;19922;-88
2021/10/04 08:22:57;;;;;;;;;;;;;;;;;;4966949;28;19960;-88
2021/10/04 08:25:25;;;;;;;;;;;;;;;;;;4994591;28;20365;-88
2021/10/04 08:27:50;;;;;;;;;;;;;;;;;;4961699;28;20428;-87
2021/10/04 08:30:16;;;;;;;;;;;;;;;;;;4962424;28;20017;-86
2021/10/04 08:32:42;;;;;;;;;;;;;;;;;;4962209;28;19913;-87
2021/10/04 08:35:08;;;;;;;;;;;;;;;;;;4977624;28;19960;-87
2021/10/04 08:37:34;;;;;;;;;;;;;;;;;;4965494;28;19945;-87
2021/10/04 08:40:05;;;;;;;;;;;;;;;;;;4958832;28;19921;-88
2021/10/04 08:42:33;;;;;;;;;;;;;;;;;;4993684;28;19929;-87
2021/10/04 08:44:59;;;;;;;;;;;;;;;;;;4961812;28;19922;-87
2021/10/04 08:47:25;;;;;;;;;;;;;;;;;;4993671;28;19926;-86
2021/10/04 08:49:50;;;;;;;;;;;;;;;;;;4977015;28;20288;-87
2021/10/04 08:52:27;;;;;;;;;;;;;;;;;;4962284;28;20381;-86
2021/10/04 08:54:52;;;;;;;;;;;;;;;;;;4993954;28;20051;-88
2021/10/04 08:57:19;;;;;;;;;;;;;;;;;;4959781;28;19918;-86
2021/10/04 08:59:44;;;;;;;;;;;;;;;;;;4961118;28;19921;-85
2021/10/04 09:02:22;;;;;;;;;;;;;;;;;;4960413;28;19918;-87
2021/10/04 09:05:11;;;;;;;;;;;;;;;;;;4974973;28;19918;-87
2021/10/04 09:08:07;;;;;;;;;;;;;;;;;;5009469;28;19917;-85
2021/10/04 09:10:33;;;;;;;;;;;;;;;;;;5004876;28;19922;-83
2021/10/04 09:13:03;;;;;;;;;;;;;;;;;;4980023;28;19987;-85
2021/10/04 09:15:33;;;;;;;;;;;;;;;;;;4974363;28;19918;-86
2021/10/04 09:18:00;;;;;;;;;;;;;;;;;;4977510;28;19918;-88
2021/10/04 09:20:45;;;;;;;;;;;;;;;;;;4961240;28;20412;-87
2021/10/04 09:23:25;;;;;;;;;;;;;;;;;;4960916;28;20295;-87
2021/10/04 09:25:51;;;;;;;;;;;;;;;;;;4960924;28;19972;-87
2021/10/04 09:28:25;;;;;;;;;;;;;;;;;;4977269;28;19957;-87
2021/10/04 09:30:54;;;;;;;;;;;;;;;;;;4961157;28;19918;-88
2021/10/04 09:33:21;;;;;;;;;;;;;;;;;;4961462;28;19929;-88
2021/10/04 09:35:48;;;;;;;;;;;;;;;;;;4960664;28;20013;-87
2021/10/04 09:38:16;;;;;;;;;;;;;;;;;;4989751;28;20398;-87
2021/10/04 09:40:47;;;;;;;;;;;;;;;;;;4960810;28;20001;-87
2021/10/04 09:43:26;;;;;;;;;;;;;;;;;;4993310;28;19913;-87
2021/10/04 09:46:01;;;;;;;;;;;;;;;;;;4993150;28;20426;-88
2021/10/04 09:48:27;;;;;;;;;;;;;;;;;;4991977;28;19922;-87
2021/10/04 09:50:53;;;;;;;;;;;;;;;;;;4958383;28;19930;-86
2021/10/04 09:53:18;;;;;;;;;;;;;;;;;;4959925;28;19913;-86
2021/10/04 09:55:45;;;;;;;;;;;;;;;;;;4992017;28;20456;-86
2021/10/04 09:58:17;;;;;;;;;;;;;;;;;;4952516;28;19924;-85
2021/10/04 10:00:51;;;;;;;;;;;;;;;;;;4972465;28;19914;-87
2021/10/04 10:03:18;;;;;;;;;;;;;;;;;;4956284;28;19918;-86
2021/10/04 10:05:46;;;;;;;;;;;;;;;;;;4973323;28;19914;-87
2021/10/04 10:08:11;;;;;;;;;;;;;;;;;;4972296;28;20016;-86
2021/10/04 10:10:38;;;;;;;;;;;;;;;;;;4972764;28;20013;-86
2021/10/04 10:13:04;;;;;;;;;;;;;;;;;;4959528;28;20093;-87
2021/10/04 10:15:29;;;;;;;;;;;;;;;;;;4956563;28;20005;-86
2021/10/04 10:17:59;;;;;;;;;;;;;;;;;;4975749;28;20465;-87
2021/10/04 10:20:25;;;;;;;;;;;;;;;;;;4972580;28;20341;-86
2021/10/04 10:22:51;;;;;;;;;;;;;;;;;;4956473;28;19914;-85
2021/10/04 10:25:28;;;;;;;;;;;;;;;;;;4986373;28;19977;-84
2021/10/04 10:27:54;;;;;;;;;;;;;;;;;;5006827;28;20030;-86
2021/10/04 10:30:23;;;;;;;;;;;;;;;;;;5024643;28;19921;-86
2021/10/04 10:32:49;;;;;;;;;;;;;;;;;;5024636;28;20016;-87
2021/10/04 10:35:15;;;;;;;;;;;;;;;;;;5024638;28;20021;-85
2021/10/04 10:37:49;;;;;;;;;;;;;;;;;;5024865;28;19914;-85
2021/10/04 10:40:19;;;;;;;;;;;;;;;;;;5024289;28;19922;-85
2021/10/04 10:43:00;;;;;;;;;;;;;;;;;;5023031;28;19922;-85
2021/10/04 10:45:26;;;;;;;;;;;;;;;;;;4988370;28;19943;-85
2021/10/04 10:47:53;;;;;;;;;;;;;;;;;;4988694;28;19985;-85
2021/10/04 10:50:34;;;;;;;;;;;;;;;;;;4988559;28;20275;-85
2021/10/04 10:52:59;;;;;;;;;;;;;;;;;;5000329;28;19924;-85
2021/10/04 10:55:29;;;;;;;;;;;;;;;;;;5008281;28;19917;-85
2021/10/04 10:58:03;;;;;;;;;;;;;;;;;;4977299;28;19965;-85
2021/10/04 11:00:33;;;;;;;;;;;;;;;;;;4958801;28;19922;-85
2021/10/04 11:03:14;;;;;;;;;;;;;;;;;;4959927;28;19921;-85
2021/10/04 11:05:41;;;;;;;;;;;;;;;;;;4959138;28;19946;-85
2021/10/04 11:08:07;;;;;;;;;;;;;;;;;;4975405;28;20268;-85
2021/10/04 11:10:33;;;;;;;;;;;;;;;;;;4958531;28;19918;-83
2021/10/04 11:13:08;;;;;;;;;;;;;;;;;;4967709;28;19918;-82
2021/10/04 11:15:42;;;;;;;;;;;;;;;;;;4989369;28;19921;-83
2021/10/04 11:18:14;;;;;;;;;;;;;;;;;;4953866;28;19926;-81
2021/10/04 11:20:41;;;;;;;;;;;;;;;;;;4958634;28;19924;-84
2021/10/04 11:23:12;;;;;;;;;;;;;;;;;;4978554;28;19924;-84
2021/10/04 11:25:44;;;;;;;;;;;;;;;;;;4962718;28;19918;-82
2021/10/04 11:28:10;;;;;;;;;;;;;;;;;;5008988;28;19930;-82
2021/10/04 11:30:51;;;;;;;;;;;;;;;;;;4948317;28;20071;-84
2021/10/04 11:33:19;;;;;;;;;;;;;;;;;;4991514;28;20412;-89
2021/10/04 11:35:54;;;;;;;;;;;;;;;;;;4982533;28;19918;-84
2021/10/04 11:38:20;;;;;;;;;;;;;;;;;;4978325;28;20365;-83
2021/10/04 11:40:47;;;;;;;;;;;;;;;;;;4978495;28;19928;-88
2021/10/04 11:43:12;;;;;;;;;;;;;;;;;;4959565;28;20602;-88
2021/10/04 11:45:40;;;;;;;;;;;;;;;;;;4983180;28;20383;-89
2021/10/04 11:48:06;;;;;;;;;;;;;;;;;;4978206;28;20324;-88
2021/10/04 11:50:32;;;;;;;;;;;;;;;;;;4979607;28;19918;-88
2021/10/04 11:52:59;;;;;;;;;;;;;;;;;;4979558;28;19913;-89
2021/10/04 11:55:26;;;;;;;;;;;;;;;;;;4975074;28;19972;-89
2021/10/04 11:57:54;;;;;;;;;;;;;;;;;;4991951;28;20257;-88
2021/10/04 12:00:19;;;;;;;;;;;;;;;;;;4962552;28;19933;-87
2021/10/04 12:02:50;;;;;;;;;;;;;;;;;;4978915;28;19914;-88
2021/10/04 12:05:19;;;;;;;;;;;;;;;;;;4979136;28;19921;-88
2021/10/04 12:07:57;;;;;;;;;;;;;;;;;;4962710;28;19925;-88
2021/10/04 12:10:23;;;;;;;;;;;;;;;;;;4984558;28;19960;-87
2021/10/04 12:12:51;;;;;;;;;;;;;;;;;;4981813;28;19913;-87
2021/10/04 12:15:19;;;;;;;;;;;;;;;;;;5031023;28;19925;-88
2021/10/04 12:17:44;;;;;;;;;;;;;;;;;;4982017;28;19922;-86
2021/10/04 12:20:20;;;;;;;;;;;;;;;;;;4982323;28;19936;-88
2021/10/04 12:22:45;;;;;;;;;;;;;;;;;;4981646;28;19959;-86
2021/10/04 12:25:32;;;;;;;;;;;;;;;;;;4997868;28;19972;-88
2021/10/04 12:28:04;;;;;;;;;;;;;;;;;;4997670;28;19952;-87
2021/10/04 12:30:46;;;;;;;;;;;;;;;;;;4998060;28;19918;-88
2021/10/04 12:33:15;;;;;;;;;;;;;;;;;;4998331;28;20375;-87
2021/10/04 12:35:41;;;;;;;;;;;;;;;;;;4978521;28;19918;-88
2021/10/04 12:38:13;;;;;;;;;;;;;;;;;;4978114;28;19925;-88
2021/10/04 12:40:45;;;;;;;;;;;;;;;;;;4978380;28;19914;-88
2021/10/04 12:43:15;;;;;;;;;;;;;;;;;;4977970;28;19949;-88
2021/10/04 12:45:53;;;;;;;;;;;;;;;;;;4978025;28;19965;-88
2021/10/04 12:48:20;;;;;;;;;;;;;;;;;;4977913;28;19925;-88
2021/10/04 12:50:46;;;;;;;;;;;;;;;;;;4974428;28;20273;-89
2021/10/04 12:53:12;;;;;;;;;;;;;;;;;;4974983;28;19921;-88
2021/10/04 12:55:54;;;;;;;;;;;;;;;;;;4991025;28;19914;-89
2021/10/04 12:58:19;;;;;;;;;;;;;;;;;;4974298;28;19965;-87
2021/10/04 13:00:45;;;;;;;;;;;;;;;;;;4974693;28;19976;-86
2021/10/04 13:03:11;;;;;;;;;;;;;;;;;;4974728;28;19937;-87
2021/10/04 13:05:36;;;;;;;;;;;;;;;;;;4974715;28;19914;-87
2021/10/04 13:08:03;;;;;;;;;;;;;;;;;;4974175;28;19914;-88
2021/10/04 13:10:30;;;;;;;;;;;;;;;;;;4974190;28;20392;-87
2021/10/04 13:12:59;;;;;;;;;;;;;;;;;;4974287;28;19921;-87
2021/10/04 13:15:25;;;;;;;;;;;;;;;;;;4974977;28;19922;-87
2021/10/04 13:17:50;;;;;;;;;;;;;;;;;;4974039;28;19924;-87
2021/10/04 13:20:17;;;;;;;;;;;;;;;;;;4974311;28;19922;-87
2021/10/04 13:22:43;;;;;;;;;;;;;;;;;;4974060;28;19914;-88
2021/10/04 13:25:12;;;;;;;;;;;;;;;;;;4974036;28;19961;-88
2021/10/04 13:27:38;;;;;;;;;;;;;;;;;;4974179;28;19949;-87
2021/10/04 13:30:05;;;;;;;;;;;;;;;;;;4974309;28;19965;-88
2021/10/04 13:32:30;;;;;;;;;;;;;;;;;;4974322;28;20392;-88
2021/10/04 13:34:56;;;;;;;;;;;;;;;;;;4974870;28;19967;-87
2021/10/04 13:37:23;;;;;;;;;;;;;;;;;;4977214;28;19920;-88
2021/10/04 13:39:49;;;;;;;;;;;;;;;;;;4976896;28;19921;-87
2021/10/04 13:42:15;;;;;;;;;;;;;;;;;;4976123;28;19922;-87
2021/10/04 13:44:40;;;;;;;;;;;;;;;;;;4974295;28;20368;-88
2021/10/04 13:47:08;;;;;;;;;;;;;;;;;;4973686;28;19976;-88
2021/10/04 13:49:33;;;;;;;;;;;;;;;;;;4973621;28;20017;-87
2021/10/04 13:51:59;;;;;;;;;;;;;;;;;;4973681;28;19969;-88
2021/10/04 13:54:25;;;;;;;;;;;;;;;;;;4973478;28;19929;-88
2021/10/04 13:56:51;;;;;;;;;;;;;;;;;;4984746;28;19914;-87
2021/10/04 13:59:18;;;;;;;;;;;;;;;;;;4960632;28;19969;-87
2021/10/04 14:01:44;;;;;;;;;;;;;;;;;;4976649;28;19914;-88
2021/10/04 14:04:10;;;;;;;;;;;;;;;;;;4960726;28;20503;-87
2021/10/04 14:06:36;;;;;;;;;;;;;;;;;;4960415;28;20020;-88
2021/10/04 14:09:02;;;;;;;;;;;;;;;;;;4976475;28;20008;-88
2021/10/04 14:11:27;;;;;;;;;;;;;;;;;;4960186;28;19953;-88
2021/10/04 14:13:52;;;;;;;;;;;;;;;;;;4960587;28;20480;-87
2021/10/04 14:16:18;;;;;;;;;;;;;;;;;;4976568;28;19968;-87
2021/10/04 14:18:45;;;;;;;;;;;;;;;;;;4976754;28;19921;-87
2021/10/04 14:21:11;;;;;;;;;;;;;;;;;;4960250;28;19968;-87
2021/10/04 14:23:37;;;;;;;;;;;;;;;;;;4976106;28;19918;-88
2021/10/04 14:26:02;;;;;;;;;;;;;;;;;;4960153;28;19921;-87
2021/10/04 14:28:28;;;;;;;;;;;;;;;;;;4960155;28;19920;-86
2021/10/04 14:30:54;;;;;;;;;;;;;;;;;;4959801;28;19913;-87
2021/10/04 14:33:21;;;;;;;;;;;;;;;;;;4960254;28;19918;-87
2021/10/04 14:35:47;;;;;;;;;;;;;;;;;;4960118;28;19994;-87
2021/10/04 14:38:12;;;;;;;;;;;;;;;;;;4959692;28;19921;-87
2021/10/04 14:40:39;;;;;;;;;;;;;;;;;;4948766;28;19918;-88
2021/10/04 14:43:05;;;;;;;;;;;;;;;;;;4988735;28;19923;-88
2021/10/04 14:45:30;;;;;;;;;;;;;;;;;;4974894;28;19968;-88
2021/10/04 14:47:57;;;;;;;;;;;;;;;;;;4976318;28;19918;-87
2021/10/04 14:50:24;;;;;;;;;;;;;;;;;;4975749;28;19914;-86
2021/10/04 14:52:50;;;;;;;;;;;;;;;;;;4959597;28;20321;-87
2021/10/04 14:55:16;;;;;;;;;;;;;;;;;;4962561;28;20348;-87
2021/10/04 14:57:43;;;;;;;;;;;;;;;;;;4962621;28;20454;-86
2021/10/04 15:00:09;;;;;;;;;;;;;;;;;;4959378;28;19918;-87
2021/10/04 15:02:34;;;;;;;;;;;;;;;;;;4976441;28;19918;-87
2021/10/04 15:05:01;;;;;;;;;;;;;;;;;;4977073;28;19974;-87
2021/10/04 15:07:27;;;;;;;;;;;;;;;;;;4980065;28;19921;-88
2021/10/04 15:09:52;;;;;;;;;;;;;;;;;;4980924;28;20013;-89
2021/10/04 15:12:17;;;;;;;;;;;;;;;;;;4964743;28;19917;-89
2021/10/04 15:14:43;;;;;;;;;;;;;;;;;;4963553;28;19918;-89
2021/10/04 15:17:08;;;;;;;;;;;;;;;;;;4963779;28;19918;-89
2021/10/04 15:19:33;;;;;;;;;;;;;;;;;;4963462;28;19926;-87
2021/10/04 15:21:59;;;;;;;;;;;;;;;;;;4963212;28;19953;-89
2021/10/04 15:24:24;;;;;;;;;;;;;;;;;;4962966;28;19925;-88
2021/10/04 15:26:49;;;;;;;;;;;;;;;;;;4963297;28;20048;-88
2021/10/04 15:29:15;;;;;;;;;;;;;;;;;;4963605;28;20434;-88
2021/10/04 15:31:43;;;;;;;;;;;;;;;;;;4963439;28;20381;-87
2021/10/04 15:34:08;;;;;;;;;;;;;;;;;;4963756;28;19914;-88
2021/10/04 15:36:35;;;;;;;;;;;;;;;;;;4978958;28;19929;-88
2021/10/04 15:39:00;;;;;;;;;;;;;;;;;;4963319;28;19918;-86
2021/10/04 15:41:26;;;;;;;;;;;;;;;;;;4979146;28;20122;-90
2021/10/04 15:43:52;;;;;;;;;;;;;;;;;;4979503;28;19957;-88
2021/10/04 15:46:18;;;;;;;;;;;;;;;;;;4963081;28;19949;-87
2021/10/04 15:48:43;;;;;;;;;;;;;;;;;;4963335;28;19921;-88
2021/10/04 15:51:12;;;;;;;;;;;;;;;;;;4961870;28;19936;-87
2021/10/04 15:53:39;;;;;;;;;;;;;;;;;;4963231;28;19924;-88
2021/10/04 15:56:05;;;;;;;;;;;;;;;;;;4963347;28;20095;-89
2021/10/04 15:58:38;;;;;;;;;;;;;;;;;;4961534;28;19926;-88
2021/10/04 16:01:09;;;;;;;;;;;;;;;;;;4974317;28;19972;-88
2021/10/04 16:03:43;;;;;;;;;;;;;;;;;;4994168;28;19945;-87
2021/10/04 16:06:14;;;;;;;;;;;;;;;;;;4991373;28;19914;-87
2021/10/04 16:08:46;;;;;;;;;;;;;;;;;;4959401;28;20369;-87
2021/10/04 16:11:15;;;;;;;;;;;;;;;;;;4975525;28;19914;-88
2021/10/04 16:13:42;;;;;;;;;;;;;;;;;;4991155;28;19918;-87
2021/10/04 16:16:09;;;;;;;;;;;;;;;;;;4961995;28;19922;-87
2021/10/04 16:18:35;;;;;;;;;;;;;;;;;;4978298;28;19918;-87
2021/10/04 16:21:00;;;;;;;;;;;;;;;;;;4962622;28;19917;-87
2021/10/04 16:23:27;;;;;;;;;;;;;;;;;;4994765;28;19940;-88
2021/10/04 16:25:52;;;;;;;;;;;;;;;;;;4994177;28;19926;-87
2021/10/04 16:28:19;;;;;;;;;;;;;;;;;;4961948;28;19944;-87
2021/10/04 16:30:47;;;;;;;;;;;;;;;;;;4977836;28;19918;-87
2021/10/04 16:33:19;;;;;;;;;;;;;;;;;;4961690;28;20390;-87
2021/10/04 16:35:45;;;;;;;;;;;;;;;;;;5009400;28;19918;-87
2021/10/04 16:38:10;;;;;;;;;;;;;;;;;;4981695;28;20016;-88
2021/10/04 16:40:36;;;;;;;;;;;;;;;;;;4962337;28;20001;-88
2021/10/04 16:43:02;;;;;;;;;;;;;;;;;;4962291;28;19965;-89
2021/10/04 16:45:29;;;;;;;;;;;;;;;;;;4962487;28;19916;-88
2021/10/04 16:47:55;;;;;;;;;;;;;;;;;;4962178;28;19921;-88